createdAt,value
2019-05-11T00:01:01.301Z,31.64
2019-05-11T00:03:40.018Z,31.86
2019-05-11T00:06:17.663Z,31.86
2019-05-11T00:08:55.656Z,31.95
2019-05-11T00:11:32.799Z,31.84
2019-05-11T00:14:10.698Z,31.82
2019-05-11T00:16:47.906Z,31.81
2019-05-11T00:19:26.693Z,31.75
2019-05-11T00:22:05.201Z,31.75
2019-05-11T00:24:42.176Z,31.61
2019-05-11T00:27:19.870Z,31.70
2019-05-11T00:29:58.045Z,31.80
2019-05-11T00:32:35.474Z,31.79
2019-05-11T00:35:13.899Z,31.44
2019-05-11T00:37:51.475Z,31.76
2019-05-11T00:40:30.376Z,31.93
2019-05-11T00:43:07.894Z,32.01
2019-05-11T00:45:45.642Z,32.03
2019-05-11T00:48:22.957Z,32.19
2019-05-11T00:51:00.809Z,32.09
2019-05-11T00:53:39.525Z,32.15
2019-05-11T00:56:16.941Z,31.94
2019-05-11T00:58:54.059Z,32.13
2019-05-11T01:01:33.022Z,32.29
2019-05-11T01:04:10.662Z,32.55
2019-05-11T01:06:47.871Z,32.75
2019-05-11T01:09:25.211Z,32.78
2019-05-11T01:12:03.683Z,32.90
2019-05-11T01:14:40.827Z,32.86
2019-05-11T01:17:18.516Z,32.76
2019-05-11T01:19:55.973Z,32.99
2019-05-11T01:22:35.243Z,33.01
2019-05-11T01:25:13.514Z,32.95
2019-05-11T01:27:51.040Z,33.26
2019-05-11T01:30:28.263Z,32.59
2019-05-11T01:33:06.598Z,32.45
2019-05-11T01:35:44.879Z,32.64
2019-05-11T01:38:22.461Z,33.05
2019-05-11T01:41:00.194Z,32.76
2019-05-11T01:43:39.020Z,32.91
2019-05-11T01:46:18.177Z,32.94
2019-05-11T01:48:55.524Z,33.05
2019-05-11T01:51:32.406Z,33.14
2019-05-11T01:54:10.535Z,33.03
2019-05-11T01:56:48.864Z,32.86
2019-05-11T01:59:26.948Z,32.96
2019-05-11T02:02:04.440Z,33.02
2019-05-11T02:04:43.247Z,33.08
2019-05-11T02:07:23.852Z,33.07
2019-05-11T02:10:02.869Z,33.40
2019-05-11T02:12:40.051Z,33.45
2019-05-11T02:15:18.263Z,33.48
2019-05-11T02:17:55.342Z,34.12
2019-05-11T02:20:32.602Z,33.66
2019-05-11T02:23:10.040Z,33.76
2019-05-11T02:25:48.085Z,34.03
2019-05-11T02:28:26.893Z,34.50
2019-05-11T02:31:04.879Z,34.85
2019-05-11T02:33:42.237Z,35.14
2019-05-11T02:36:20.380Z,34.86
2019-05-11T02:38:58.325Z,34.18
2019-05-11T02:41:37.674Z,34.51
2019-05-11T02:44:16.357Z,34.57
2019-05-11T02:46:54.079Z,35.02
2019-05-11T02:49:31.086Z,34.60
2019-05-11T02:52:08.864Z,34.53
2019-05-11T02:54:46.418Z,34.61
2019-05-11T02:57:24.841Z,34.73
2019-05-11T03:00:03.289Z,34.41
2019-05-11T03:02:43.165Z,34.42
2019-05-11T03:05:20.589Z,34.53
2019-05-11T03:07:59.855Z,34.89
2019-05-11T03:10:36.656Z,35.00
2019-05-11T03:13:14.010Z,35.15
2019-05-11T03:15:52.484Z,35.17
2019-05-11T03:18:31.023Z,35.29
2019-05-11T03:21:08.728Z,35.20
2019-05-11T03:23:46.972Z,35.19
2019-05-11T03:26:24.569Z,35.48
2019-05-11T03:29:05.247Z,36.01
2019-05-11T03:31:43.678Z,35.58
2019-05-11T03:34:20.897Z,35.88
2019-05-11T03:36:58.310Z,36.24
2019-05-11T03:39:36.935Z,36.07
2019-05-11T03:42:15.472Z,35.88
2019-05-11T03:44:54.107Z,35.91
2019-05-11T03:47:32.001Z,36.00
2019-05-11T03:50:10.023Z,36.31
2019-05-11T03:52:46.881Z,36.57
2019-05-11T03:55:26.953Z,36.60
2019-05-11T03:58:04.380Z,36.78
2019-05-11T04:00:43.118Z,37.17
2019-05-11T04:03:21.774Z,36.57
2019-05-11T04:05:59.189Z,36.58
2019-05-11T04:08:36.875Z,36.16
2019-05-11T04:11:14.837Z,36.18
2019-05-11T04:13:51.859Z,36.19
2019-05-11T04:16:29.503Z,36.41
2019-05-11T04:19:06.918Z,36.44
2019-05-11T04:21:44.979Z,36.35
2019-05-11T04:24:22.278Z,37.41
2019-05-11T04:27:00.016Z,36.45
2019-05-11T04:29:37.462Z,36.81
2019-05-11T04:32:15.858Z,36.69
2019-05-11T04:34:54.236Z,36.53
2019-05-11T04:37:32.173Z,36.45
2019-05-11T04:40:10.214Z,36.66
2019-05-11T04:42:54.994Z,36.48
2019-05-11T04:45:28.697Z,36.79
2019-05-11T04:48:07.541Z,36.78
2019-05-11T04:50:44.539Z,36.21
2019-05-11T04:53:22.738Z,36.26
2019-05-11T04:55:59.925Z,36.03
2019-05-11T04:58:37.458Z,35.33
2019-05-11T05:01:14.775Z,35.38
2019-05-11T05:03:56.225Z,35.65
2019-05-11T05:06:32.490Z,36.23
2019-05-11T05:09:09.826Z,36.18
2019-05-11T05:11:47.274Z,36.75
2019-05-11T05:14:25.077Z,36.87
2019-05-11T05:17:02.547Z,36.39
2019-05-11T05:19:39.718Z,36.47
2019-05-11T05:22:19.376Z,35.91
2019-05-11T05:24:57.331Z,35.98
2019-05-11T05:27:34.644Z,36.09
2019-05-11T05:30:13.061Z,36.22
2019-05-11T05:32:50.353Z,36.52
2019-05-11T05:35:28.312Z,36.66
2019-05-11T05:38:06.648Z,36.41
2019-05-11T05:40:44.814Z,36.05
2019-05-11T05:43:28.116Z,36.47
2019-05-11T05:46:03.260Z,36.48
2019-05-11T05:48:40.788Z,36.61
2019-05-11T05:51:19.417Z,37.02
2019-05-11T05:53:56.698Z,36.40
2019-05-11T05:56:34.527Z,36.41
2019-05-11T05:59:12.178Z,36.91
2019-05-11T06:01:49.890Z,36.47
2019-05-11T06:04:26.606Z,35.51
2019-05-11T06:07:04.524Z,35.79
2019-05-11T06:09:44.033Z,36.26
2019-05-11T06:12:21.902Z,36.28
2019-05-11T06:14:59.395Z,36.27
2019-05-11T06:17:37.816Z,36.38
2019-05-11T06:20:15.591Z,36.40
2019-05-11T06:22:52.930Z,36.77
2019-05-11T06:25:30.096Z,36.95
2019-05-11T06:28:08.846Z,36.93
2019-05-11T06:30:46.095Z,37.11
2019-05-11T06:33:23.897Z,36.61
2019-05-11T06:36:01.288Z,36.62
2019-05-11T06:38:40.091Z,36.91
2019-05-11T06:41:18.345Z,36.70
2019-05-11T06:44:01.805Z,36.39
2019-05-11T06:46:36.837Z,36.64
2019-05-11T06:49:14.889Z,36.71
2019-05-11T06:51:52.397Z,36.92
2019-05-11T06:54:29.392Z,37.04
2019-05-11T06:57:06.731Z,37.09
2019-05-11T06:59:44.917Z,36.74
2019-05-11T07:02:22.006Z,36.80
2019-05-11T07:04:59.444Z,36.90
2019-05-11T07:07:47.070Z,36.89
2019-05-11T07:10:16.906Z,37.11
2019-05-11T07:12:55.299Z,36.46
2019-05-11T07:15:33.024Z,36.56
2019-05-11T07:18:10.388Z,36.78
2019-05-11T07:20:50.796Z,36.71
2019-05-11T07:23:28.138Z,36.65
2019-05-11T07:26:07.685Z,36.94
2019-05-11T07:28:45.324Z,36.90
2019-05-11T07:31:23.091Z,36.76
2019-05-11T07:34:00.599Z,36.57
2019-05-11T07:36:38.770Z,36.71
2019-05-11T07:39:18.645Z,36.50
2019-05-11T07:41:58.494Z,36.72
2019-05-11T07:44:41.485Z,36.62
2019-05-11T07:47:18.669Z,36.45
2019-05-11T07:49:57.909Z,36.34
2019-05-11T07:52:37.847Z,36.28
2019-05-11T07:55:18.796Z,36.29
2019-05-11T07:57:55.280Z,36.33
2019-05-11T08:00:36.367Z,36.73
2019-05-11T08:03:12.568Z,36.59
2019-05-11T08:05:49.966Z,36.94
2019-05-11T08:08:28.307Z,36.66
2019-05-11T08:11:08.107Z,36.74
2019-05-11T08:13:47.890Z,36.67
2019-05-11T08:16:25.149Z,36.85
2019-05-11T08:19:04.992Z,37.04
2019-05-11T08:21:41.913Z,36.79
2019-05-11T08:24:20.152Z,36.12
2019-05-11T08:26:58.382Z,35.92
2019-05-11T08:29:38.442Z,36.20
2019-05-11T08:32:15.138Z,36.23
2019-05-11T08:34:53.668Z,36.16
2019-05-11T08:37:30.711Z,36.60
2019-05-11T08:40:09.254Z,36.75
2019-05-11T08:42:48.246Z,36.37
2019-05-11T08:45:28.158Z,36.89
2019-05-11T08:48:08.098Z,36.57
2019-05-11T08:50:46.087Z,36.60
2019-05-11T08:53:23.829Z,36.53
2019-05-11T08:56:02.519Z,36.92
2019-05-11T08:58:40.141Z,36.70
2019-05-11T09:01:18.428Z,36.55
2019-05-11T09:03:58.402Z,36.74
2019-05-11T09:06:37.656Z,36.85
2019-05-11T09:09:14.825Z,36.92
2019-05-11T09:11:52.196Z,36.55
2019-05-11T09:14:29.616Z,36.22
2019-05-11T09:17:07.966Z,36.57
2019-05-11T09:19:48.062Z,36.81
2019-05-11T09:22:25.300Z,36.75
2019-05-11T09:25:02.688Z,36.77
2019-05-11T09:27:43.492Z,36.85
2019-05-11T09:30:20.990Z,36.37
2019-05-11T09:32:59.763Z,36.16
2019-05-11T09:35:47.656Z,36.41
2019-05-11T09:38:18.583Z,36.86
2019-05-11T09:40:58.509Z,36.52
2019-05-11T09:43:37.556Z,36.81
2019-05-11T09:46:14.960Z,36.97
2019-05-11T09:48:53.072Z,37.16
2019-05-11T09:51:31.681Z,36.59
2019-05-11T09:54:09.777Z,36.86
2019-05-11T09:56:48.676Z,36.93
2019-05-11T09:59:28.164Z,36.58
2019-05-11T10:02:07.828Z,36.52
2019-05-11T10:04:44.715Z,36.73
2019-05-11T10:07:22.259Z,37.06
2019-05-11T10:09:59.507Z,36.52
2019-05-11T10:12:37.995Z,36.28
2019-05-11T10:15:15.757Z,36.00
2019-05-11T10:17:53.323Z,35.78
2019-05-11T10:20:30.858Z,35.79
2019-05-11T10:23:09.571Z,35.50
2019-05-11T10:25:48.079Z,35.16
2019-05-11T10:28:28.480Z,35.03
2019-05-11T10:31:08.372Z,34.67
2019-05-11T10:33:45.429Z,34.64
2019-05-11T10:36:23.272Z,34.58
2019-05-11T10:39:00.669Z,34.62
2019-05-11T10:41:39.288Z,34.40
2019-05-11T10:44:18.780Z,34.26
2019-05-11T10:46:58.712Z,34.60
2019-05-11T10:49:37.866Z,34.61
2019-05-11T10:52:18.030Z,34.73
2019-05-11T10:54:58.394Z,34.53
2019-05-11T10:57:34.732Z,34.35
2019-05-11T11:00:12.465Z,34.55
2019-05-11T11:02:50.464Z,34.74
2019-05-11T11:05:27.995Z,34.39
2019-05-11T11:08:05.450Z,34.31
2019-05-11T11:10:42.967Z,34.43
2019-05-11T11:13:20.741Z,34.38
2019-05-11T11:16:01.622Z,34.01
2019-05-11T11:18:38.099Z,34.22
2019-05-11T11:21:19.213Z,34.57
2019-05-11T11:23:58.561Z,34.65
2019-05-11T11:26:38.015Z,34.50
2019-05-11T11:29:17.881Z,34.50
2019-05-11T11:31:54.756Z,34.48
2019-05-11T11:34:32.695Z,34.30
2019-05-11T11:37:10.345Z,34.18
2019-05-11T11:39:48.139Z,33.76
2019-05-11T11:42:28.256Z,34.07
2019-05-11T11:45:07.876Z,34.01
2019-05-11T11:47:45.528Z,33.82
2019-05-11T11:50:23.582Z,33.82
2019-05-11T11:53:00.926Z,34.05
2019-05-11T11:55:39.768Z,33.81
2019-05-11T11:58:23.556Z,33.85
2019-05-11T12:00:58.688Z,33.64
2019-05-11T12:03:38.513Z,33.57
2019-05-11T12:06:18.158Z,33.54
2019-05-11T12:08:58.292Z,33.45
2019-05-11T12:11:35.447Z,33.19
2019-05-11T12:14:12.915Z,33.26
2019-05-11T12:17:04.013Z,33.30
2019-05-11T12:19:29.820Z,33.37
2019-05-11T12:22:08.611Z,33.34
2019-05-11T12:24:48.140Z,33.33
2019-05-11T12:27:25.960Z,33.45
2019-05-11T12:30:04.112Z,33.59
2019-05-11T12:32:48.860Z,33.39
2019-05-11T12:35:28.401Z,33.19
2019-05-11T12:38:08.043Z,33.53
2019-05-11T12:40:47.581Z,33.67
2019-05-11T12:43:24.303Z,33.37
2019-05-11T12:46:05.235Z,33.51
2019-05-11T12:48:44.378Z,33.27
2019-05-11T12:51:21.365Z,33.36
2019-05-11T12:53:59.830Z,33.21
2019-05-11T12:56:38.286Z,33.48
2019-05-11T12:59:15.841Z,33.58
2019-05-11T13:01:54.399Z,33.64
2019-05-11T13:04:31.409Z,33.61
2019-05-11T13:07:08.811Z,33.48
2019-05-11T13:09:48.481Z,33.58
2019-05-11T13:12:27.905Z,33.69
2019-05-11T13:15:07.823Z,33.64
2019-05-11T13:17:45.760Z,33.55
2019-05-11T13:20:23.582Z,33.51
2019-05-11T13:23:01.039Z,33.48
2019-05-11T13:25:39.104Z,33.64
2019-05-11T13:28:17.984Z,33.66
2019-05-11T13:30:57.917Z,33.74
2019-05-11T13:33:35.744Z,33.59
2019-05-11T13:36:13.767Z,33.53
2019-05-11T13:38:51.937Z,33.59
2019-05-11T13:41:29.802Z,33.41
2019-05-11T13:44:07.971Z,33.19
2019-05-11T13:46:47.949Z,33.38
2019-05-11T13:49:28.182Z,33.49
2019-05-11T13:52:05.894Z,33.56
2019-05-11T13:54:43.540Z,33.50
2019-05-11T13:57:21.300Z,33.26
2019-05-11T13:59:58.721Z,33.02
2019-05-11T14:02:37.961Z,33.07
2019-05-11T14:05:18.069Z,33.01
2019-05-11T14:07:56.018Z,33.26
2019-05-11T14:10:33.350Z,33.20
2019-05-11T14:13:11.685Z,33.04
2019-05-11T14:15:49.413Z,33.10
2019-05-11T14:18:28.178Z,33.18
2019-05-11T14:21:07.911Z,33.13
2019-05-11T14:23:45.129Z,33.13
2019-05-11T14:26:22.525Z,32.98
2019-05-11T14:29:01.241Z,33.18
2019-05-11T14:31:38.949Z,33.40
2019-05-11T14:34:18.219Z,33.20
2019-05-11T14:36:58.179Z,33.32
2019-05-11T14:39:38.356Z,33.17
2019-05-11T14:42:15.257Z,33.17
2019-05-11T14:44:53.233Z,32.95
2019-05-11T14:47:30.561Z,33.05
2019-05-11T14:50:08.783Z,32.99
2019-05-11T14:52:48.853Z,33.07
2019-05-11T14:55:28.230Z,32.88
2019-05-11T14:58:04.707Z,32.98
2019-05-11T15:00:40.713Z,33.16
2019-05-11T15:03:18.386Z,33.16
2019-05-11T15:05:58.284Z,32.94
2019-05-11T15:08:35.923Z,33.00
2019-05-11T15:11:13.392Z,32.83
2019-05-11T15:13:50.538Z,32.70
2019-05-11T15:16:28.006Z,32.66
2019-05-11T15:19:05.475Z,32.96
2019-05-11T15:21:43.320Z,32.98
2019-05-11T15:24:20.337Z,32.85
2019-05-11T15:26:57.925Z,32.56
2019-05-11T15:29:35.164Z,32.79
2019-05-11T15:32:12.797Z,32.75
2019-05-11T15:34:50.419Z,32.68
2019-05-11T15:37:28.681Z,32.57
2019-05-11T15:40:18.670Z,32.77
2019-05-11T15:42:58.554Z,32.80
2019-05-11T15:45:38.022Z,32.56
2019-05-11T15:48:15.730Z,32.75
2019-05-11T15:50:53.546Z,33.00
2019-05-11T15:53:31.333Z,32.98
2019-05-11T15:56:09.100Z,32.76
2019-05-11T15:58:48.596Z,32.98
2019-05-11T16:01:26.352Z,32.93
2019-05-11T16:04:04.112Z,32.99
2019-05-11T16:06:41.612Z,32.84
2019-05-11T16:09:19.664Z,33.08
2019-05-11T16:11:58.316Z,33.08
2019-05-11T16:14:38.207Z,32.76
2019-05-11T16:17:14.995Z,32.82
2019-05-11T16:19:53.149Z,32.86
2019-05-11T16:22:30.649Z,33.00
2019-05-11T16:25:08.810Z,32.71
2019-05-11T16:27:45.890Z,32.59
2019-05-11T16:30:24.641Z,32.72
2019-05-11T16:33:02.083Z,32.79
2019-05-11T16:35:39.998Z,32.68
2019-05-11T16:38:18.886Z,32.94
2019-05-11T16:40:58.436Z,33.09
2019-05-11T16:43:38.538Z,32.77
2019-05-11T16:46:17.731Z,32.70
2019-05-11T16:48:57.790Z,32.90
2019-05-11T16:51:38.705Z,32.93
2019-05-11T16:54:15.441Z,32.87
2019-05-11T16:56:53.181Z,32.86
2019-05-11T16:59:30.390Z,32.72
2019-05-11T17:02:08.527Z,32.74
2019-05-11T17:04:47.966Z,32.42
2019-05-11T17:07:25.165Z,32.62
2019-05-11T17:10:02.602Z,32.70
2019-05-11T17:12:40.461Z,32.95
2019-05-11T17:15:19.267Z,32.82
2019-05-11T17:17:58.764Z,32.91
2019-05-11T17:20:35.973Z,32.99
2019-05-11T17:23:13.755Z,32.88
2019-05-11T17:25:50.765Z,32.59
2019-05-11T17:28:28.212Z,32.77
2019-05-11T17:31:07.747Z,32.77
2019-05-11T17:33:44.841Z,32.67
2019-05-11T17:36:21.823Z,32.74
2019-05-11T17:38:59.286Z,33.04
2019-05-11T17:41:38.618Z,32.94
2019-05-11T17:44:18.552Z,32.83
2019-05-11T17:46:57.880Z,32.98
2019-05-11T17:49:38.281Z,33.05
2019-05-11T17:52:15.307Z,32.79
2019-05-11T17:54:55.219Z,32.76
2019-05-11T17:57:32.632Z,32.75
2019-05-11T18:00:10.159Z,32.77
2019-05-11T18:02:49.083Z,32.78
2019-05-11T18:05:28.603Z,32.67
2019-05-11T18:08:08.570Z,32.74
2019-05-11T18:10:47.802Z,32.76
2019-05-11T18:13:24.528Z,32.42
2019-05-11T18:16:05.377Z,32.56
2019-05-11T18:18:43.900Z,32.65
2019-05-11T18:21:21.234Z,32.90
2019-05-11T18:23:58.847Z,32.76
2019-05-11T18:26:38.280Z,32.76
2019-05-11T18:29:18.074Z,32.69
2019-05-11T18:31:57.808Z,32.62
2019-05-11T18:34:34.636Z,32.75
2019-05-11T18:37:13.014Z,32.67
2019-05-11T18:39:52.799Z,32.79
2019-05-11T18:42:29.869Z,32.69
2019-05-11T18:45:08.237Z,32.59
2019-05-11T18:47:48.845Z,32.74
2019-05-11T18:50:31.310Z,32.81
2019-05-11T18:53:09.237Z,32.68
2019-05-11T18:55:48.660Z,32.50
2019-05-11T18:58:27.692Z,32.79
2019-05-11T19:01:06.170Z,32.96
2019-05-11T19:03:44.193Z,33.02
2019-05-11T19:06:22.976Z,32.91
2019-05-11T19:09:02.178Z,32.92
2019-05-11T19:11:42.829Z,33.07
2019-05-11T19:14:19.682Z,32.82
2019-05-11T19:16:56.858Z,32.95
2019-05-11T19:19:34.958Z,33.03
2019-05-11T19:22:13.509Z,32.82
2019-05-11T19:24:50.740Z,32.58
2019-05-11T19:27:28.824Z,32.69
2019-05-11T19:30:07.970Z,32.68
2019-05-11T19:32:45.218Z,32.80
2019-05-11T19:35:22.315Z,32.48
2019-05-11T19:38:02.044Z,32.39
2019-05-11T19:40:42.490Z,32.37
2019-05-11T19:43:19.813Z,32.37
2019-05-11T19:45:58.166Z,32.27
2019-05-11T19:48:35.555Z,32.21
2019-05-11T19:51:13.329Z,32.39
2019-05-11T19:53:52.450Z,32.49
2019-05-11T19:56:29.827Z,32.21
2019-05-11T19:59:08.532Z,32.09
2019-05-11T20:01:47.064Z,32.23
2019-05-11T20:04:24.618Z,32.16
2019-05-11T20:07:02.202Z,32.24
2019-05-11T20:09:39.497Z,32.04
2019-05-11T20:12:20.052Z,32.01
2019-05-11T20:14:58.638Z,31.93
2019-05-11T20:17:36.186Z,32.08
2019-05-11T20:20:13.445Z,31.99
2019-05-11T20:22:51.802Z,31.96
2019-05-11T20:25:30.875Z,31.86
2019-05-11T20:28:08.510Z,31.95
2019-05-11T20:30:48.260Z,32.03
2019-05-11T20:33:25.357Z,32.02
2019-05-11T20:36:02.193Z,32.06
2019-05-11T20:38:39.838Z,32.06
2019-05-11T20:41:17.075Z,31.95
2019-05-11T20:43:55.553Z,31.89
2019-05-11T20:46:32.888Z,31.80
2019-05-11T20:49:10.741Z,31.87
2019-05-11T20:51:48.566Z,31.93
2019-05-11T20:54:28.255Z,31.61
2019-05-11T20:57:08.898Z,31.65
2019-05-11T20:59:46.606Z,31.72
2019-05-11T21:02:23.646Z,31.81
2019-05-11T21:05:02.022Z,31.61
2019-05-11T21:07:41.156Z,31.49
2019-05-11T21:10:19.308Z,31.66
2019-05-11T21:12:57.741Z,31.67
2019-05-11T21:15:38.321Z,31.80
2019-05-11T21:18:15.355Z,31.86
2019-05-11T21:20:52.705Z,31.75
2019-05-11T21:23:30.019Z,31.59
2019-05-11T21:26:09.918Z,31.59
2019-05-11T21:28:48.662Z,31.44
2019-05-11T21:31:29.011Z,31.44
2019-05-11T21:34:08.073Z,31.41
2019-05-11T21:36:48.305Z,31.58
2019-05-11T21:39:24.467Z,31.55
2019-05-11T21:42:01.643Z,31.46
2019-05-11T21:44:39.726Z,31.42
2019-05-11T21:47:18.330Z,31.51
2019-05-11T21:49:57.772Z,31.38
2019-05-11T21:52:38.160Z,31.26
2019-05-11T21:55:15.597Z,31.38
2019-05-11T21:57:54.641Z,31.50
2019-05-11T22:00:34.299Z,31.54
2019-05-11T22:03:12.871Z,31.36
2019-05-11T22:05:50.225Z,31.42
2019-05-11T22:08:28.473Z,31.44
2019-05-11T22:11:08.216Z,31.12
2019-05-11T22:13:45.447Z,31.05
2019-05-11T22:16:22.792Z,31.22
2019-05-11T22:19:00.834Z,31.35
2019-05-11T22:21:37.690Z,31.06
2019-05-11T22:24:14.869Z,30.98
2019-05-11T22:26:52.933Z,31.04
2019-05-11T22:29:32.915Z,31.00
2019-05-11T22:32:11.068Z,31.00
2019-05-11T22:34:49.194Z,31.26
2019-05-11T22:37:27.736Z,31.22
2019-05-11T22:40:08.152Z,31.10
2019-05-11T22:42:45.686Z,31.17
2019-05-11T22:45:23.627Z,31.13
2019-05-11T22:48:02.185Z,31.16
2019-05-11T22:50:43.707Z,31.23
2019-05-11T22:53:20.588Z,31.41
2019-05-11T22:55:58.554Z,31.16
2019-05-11T22:58:36.312Z,31.07
2019-05-11T23:01:14.492Z,30.87
2019-05-11T23:03:52.323Z,31.03
2019-05-11T23:06:32.344Z,30.89
2019-05-11T23:09:10.052Z,30.76
2019-05-11T23:11:48.337Z,30.88
2019-05-11T23:14:25.304Z,31.01
2019-05-11T23:17:02.487Z,31.03
2019-05-11T23:19:40.579Z,31.05
2019-05-11T23:22:18.973Z,31.13
2019-05-11T23:24:58.652Z,31.07
2019-05-11T23:27:35.985Z,30.84
2019-05-11T23:30:13.607Z,30.96
2019-05-11T23:32:51.905Z,31.00
2019-05-11T23:35:30.370Z,31.15
2019-05-11T23:38:08.112Z,31.32
2019-05-11T23:40:48.100Z,31.08
2019-05-11T23:43:29.783Z,31.29
2019-05-11T23:46:03.996Z,31.44
2019-05-11T23:48:41.404Z,31.27
2019-05-11T23:51:19.029Z,31.39
2019-05-11T23:53:58.841Z,31.54
2019-05-11T23:56:38.641Z,31.45
2019-05-11T23:59:16.156Z,31.35
